sensor_id;sensor_type;location;lat;lon;timestamp;P1;durP1;ratioP1;P2;durP2;ratioP2
21326;SDS011;10822;51.532;6.770;2023-05-07T00:01:14;11.48;;;10.35;;
21326;SDS011;10822;51.532;6.770;2023-05-07T00:03:40;11.13;;;9.95;;
21326;SDS011;10822;51.532;6.770;2023-05-07T00:06:06;11.40;;;10.20;;
21326;SDS011;10822;51.532;6.770;2023-05-07T00:08:32;11.70;;;10.25;;
21326;SDS011;10822;51.532;6.770;2023-05-07T00:10:58;11.77;;;10.02;;
21326;SDS011;10822;51.532;6.770;2023-05-07T00:13:24;12.45;;;10.15;;
21326;SDS011;10822;51.532;6.770;2023-05-07T00:15:50;12.05;;;10.68;;
21326;SDS011;10822;51.532;6.770;2023-05-07T00:18:16;11.85;;;10.60;;
21326;SDS011;10822;51.532;6.770;2023-05-07T00:20:45;12.45;;;10.25;;
21326;SDS011;10822;51.532;6.770;2023-05-07T00:23:11;11.82;;;10.50;;
21326;SDS011;10822;51.532;6.770;2023-05-07T00:25:37;11.35;;;10.10;;
21326;SDS011;10822;51.532;6.770;2023-05-07T00:28:03;13.85;;;10.77;;
21326;SDS011;10822;51.532;6.770;2023-05-07T00:30:29;13.27;;;10.98;;
21326;SDS011;10822;51.532;6.770;2023-05-07T00:32:55;12.65;;;10.32;;
21326;SDS011;10822;51.532;6.770;2023-05-07T00:35:21;14.55;;;11.65;;
21326;SDS011;10822;51.532;6.770;2023-05-07T00:37:47;12.00;;;10.80;;
21326;SDS011;10822;51.532;6.770;2023-05-07T00:40:13;13.32;;;10.73;;
21326;SDS011;10822;51.532;6.770;2023-05-07T00:42:40;12.52;;;10.48;;
21326;SDS011;10822;51.532;6.770;2023-05-07T00:45:06;11.65;;;9.75;;
21326;SDS011;10822;51.532;6.770;2023-05-07T00:47:32;15.02;;;11.00;;
21326;SDS011;10822;51.532;6.770;2023-05-07T00:49:58;14.23;;;11.18;;
21326;SDS011;10822;51.532;6.770;2023-05-07T00:52:25;13.00;;;11.13;;
21326;SDS011;10822;51.532;6.770;2023-05-07T00:54:51;12.43;;;11.07;;
21326;SDS011;10822;51.532;6.770;2023-05-07T00:57:18;12.70;;;11.20;;
21326;SDS011;10822;51.532;6.770;2023-05-07T00:59:45;13.05;;;11.35;;
21326;SDS011;10822;51.532;6.770;2023-05-07T01:02:11;12.60;;;11.27;;
21326;SDS011;10822;51.532;6.770;2023-05-07T01:04:37;13.07;;;11.27;;
21326;SDS011;10822;51.532;6.770;2023-05-07T01:07:03;14.35;;;11.40;;
21326;SDS011;10822;51.532;6.770;2023-05-07T01:09:30;14.13;;;11.45;;
21326;SDS011;10822;51.532;6.770;2023-05-07T01:11:56;13.20;;;11.35;;
21326;SDS011;10822;51.532;6.770;2023-05-07T01:14:23;12.07;;;10.80;;
21326;SDS011;10822;51.532;6.770;2023-05-07T01:16:50;13.77;;;11.82;;
21326;SDS011;10822;51.532;6.770;2023-05-07T01:19:17;14.50;;;12.30;;
21326;SDS011;10822;51.532;6.770;2023-05-07T01:21:44;13.10;;;11.63;;
21326;SDS011;10822;51.532;6.770;2023-05-07T01:24:11;13.18;;;11.75;;
21326;SDS011;10822;51.532;6.770;2023-05-07T01:26:37;13.43;;;11.02;;
21326;SDS011;10822;51.532;6.770;2023-05-07T01:29:03;14.10;;;11.07;;
21326;SDS011;10822;51.532;6.770;2023-05-07T01:31:29;12.40;;;10.93;;
21326;SDS011;10822;51.532;6.770;2023-05-07T01:33:55;13.07;;;11.20;;
21326;SDS011;10822;51.532;6.770;2023-05-07T01:36:22;12.45;;;11.15;;
21326;SDS011;10822;51.532;6.770;2023-05-07T01:38:51;12.65;;;11.32;;
21326;SDS011;10822;51.532;6.770;2023-05-07T01:41:17;13.65;;;11.10;;
21326;SDS011;10822;51.532;6.770;2023-05-07T01:43:44;12.07;;;10.50;;
21326;SDS011;10822;51.532;6.770;2023-05-07T01:46:10;14.02;;;11.52;;
21326;SDS011;10822;51.532;6.770;2023-05-07T01:48:37;13.15;;;11.85;;
21326;SDS011;10822;51.532;6.770;2023-05-07T01:51:03;14.43;;;11.48;;
21326;SDS011;10822;51.532;6.770;2023-05-07T01:53:35;13.50;;;11.55;;
21326;SDS011;10822;51.532;6.770;2023-05-07T01:56:01;13.35;;;11.65;;
21326;SDS011;10822;51.532;6.770;2023-05-07T01:58:27;12.43;;;10.93;;
21326;SDS011;10822;51.532;6.770;2023-05-07T02:00:53;14.57;;;12.10;;
21326;SDS011;10822;51.532;6.770;2023-05-07T02:03:19;13.80;;;11.77;;
21326;SDS011;10822;51.532;6.770;2023-05-07T02:05:45;17.35;;;11.80;;
21326;SDS011;10822;51.532;6.770;2023-05-07T02:08:11;13.13;;;10.98;;
21326;SDS011;10822;51.532;6.770;2023-05-07T02:10:37;13.93;;;11.70;;
21326;SDS011;10822;51.532;6.770;2023-05-07T02:13:03;14.52;;;12.45;;
21326;SDS011;10822;51.532;6.770;2023-05-07T02:15:29;13.00;;;11.63;;
21326;SDS011;10822;51.532;6.770;2023-05-07T02:18:02;14.50;;;11.73;;
21326;SDS011;10822;51.532;6.770;2023-05-07T02:20:29;14.02;;;12.15;;
21326;SDS011;10822;51.532;6.770;2023-05-07T02:22:54;14.07;;;12.48;;
21326;SDS011;10822;51.532;6.770;2023-05-07T02:25:21;15.82;;;13.43;;
21326;SDS011;10822;51.532;6.770;2023-05-07T02:27:47;15.32;;;12.60;;
21326;SDS011;10822;51.532;6.770;2023-05-07T02:30:13;14.50;;;12.32;;
21326;SDS011;10822;51.532;6.770;2023-05-07T02:32:39;14.23;;;12.02;;
21326;SDS011;10822;51.532;6.770;2023-05-07T02:35:05;15.63;;;12.77;;
21326;SDS011;10822;51.532;6.770;2023-05-07T02:37:31;14.27;;;12.77;;
21326;SDS011;10822;51.532;6.770;2023-05-07T02:39:57;15.45;;;12.73;;
21326;SDS011;10822;51.532;6.770;2023-05-07T02:42:23;15.38;;;13.45;;
21326;SDS011;10822;51.532;6.770;2023-05-07T02:44:49;17.63;;;13.55;;
21326;SDS011;10822;51.532;6.770;2023-05-07T02:47:15;14.75;;;13.25;;
21326;SDS011;10822;51.532;6.770;2023-05-07T02:49:41;17.27;;;14.48;;
21326;SDS011;10822;51.532;6.770;2023-05-07T02:52:07;16.02;;;13.95;;
21326;SDS011;10822;51.532;6.770;2023-05-07T02:54:33;17.80;;;15.02;;
21326;SDS011;10822;51.532;6.770;2023-05-07T02:56:59;18.02;;;14.68;;
21326;SDS011;10822;51.532;6.770;2023-05-07T02:59:26;16.88;;;14.25;;
21326;SDS011;10822;51.532;6.770;2023-05-07T03:01:52;15.52;;;13.88;;
21326;SDS011;10822;51.532;6.770;2023-05-07T03:04:18;15.55;;;13.93;;
21326;SDS011;10822;51.532;6.770;2023-05-07T03:06:44;16.85;;;14.15;;
21326;SDS011;10822;51.532;6.770;2023-05-07T03:09:10;18.70;;;15.32;;
21326;SDS011;10822;51.532;6.770;2023-05-07T03:11:36;16.17;;;14.55;;
21326;SDS011;10822;51.532;6.770;2023-05-07T03:14:02;16.77;;;14.98;;
21326;SDS011;10822;51.532;6.770;2023-05-07T03:16:28;18.30;;;15.85;;
21326;SDS011;10822;51.532;6.770;2023-05-07T03:18:54;17.10;;;14.45;;
21326;SDS011;10822;51.532;6.770;2023-05-07T03:21:20;18.80;;;15.35;;
21326;SDS011;10822;51.532;6.770;2023-05-07T03:23:46;18.33;;;15.75;;
21326;SDS011;10822;51.532;6.770;2023-05-07T03:26:12;16.85;;;14.85;;
21326;SDS011;10822;51.532;6.770;2023-05-07T03:28:38;18.25;;;14.63;;
21326;SDS011;10822;51.532;6.770;2023-05-07T03:31:04;18.17;;;15.05;;
21326;SDS011;10822;51.532;6.770;2023-05-07T03:33:32;19.98;;;14.57;;
21326;SDS011;10822;51.532;6.770;2023-05-07T03:35:58;16.75;;;14.40;;
21326;SDS011;10822;51.532;6.770;2023-05-07T03:38:24;17.48;;;15.15;;
21326;SDS011;10822;51.532;6.770;2023-05-07T03:40:50;16.70;;;14.75;;
21326;SDS011;10822;51.532;6.770;2023-05-07T03:43:16;18.40;;;14.82;;
21326;SDS011;10822;51.532;6.770;2023-05-07T03:45:42;17.38;;;15.23;;
21326;SDS011;10822;51.532;6.770;2023-05-07T03:48:08;18.55;;;15.75;;
21326;SDS011;10822;51.532;6.770;2023-05-07T03:50:34;20.55;;;16.50;;
21326;SDS011;10822;51.532;6.770;2023-05-07T03:53:00;19.92;;;15.95;;
21326;SDS011;10822;51.532;6.770;2023-05-07T03:55:26;17.05;;;15.10;;
21326;SDS011;10822;51.532;6.770;2023-05-07T03:57:52;18.40;;;15.30;;
21326;SDS011;10822;51.532;6.770;2023-05-07T04:00:18;18.42;;;16.08;;
21326;SDS011;10822;51.532;6.770;2023-05-07T04:02:45;19.40;;;16.27;;
21326;SDS011;10822;51.532;6.770;2023-05-07T04:05:11;18.42;;;16.20;;
21326;SDS011;10822;51.532;6.770;2023-05-07T04:07:38;17.95;;;15.13;;
21326;SDS011;10822;51.532;6.770;2023-05-07T04:10:04;18.30;;;16.40;;
21326;SDS011;10822;51.532;6.770;2023-05-07T04:12:30;21.38;;;17.33;;
21326;SDS011;10822;51.532;6.770;2023-05-07T04:14:56;20.08;;;16.33;;
21326;SDS011;10822;51.532;6.770;2023-05-07T04:17:22;19.67;;;17.15;;
21326;SDS011;10822;51.532;6.770;2023-05-07T04:19:48;20.90;;;17.95;;
21326;SDS011;10822;51.532;6.770;2023-05-07T04:22:14;20.75;;;17.33;;
21326;SDS011;10822;51.532;6.770;2023-05-07T04:24:40;19.10;;;16.98;;
21326;SDS011;10822;51.532;6.770;2023-05-07T04:27:06;21.50;;;17.75;;
21326;SDS011;10822;51.532;6.770;2023-05-07T04:29:32;21.23;;;16.88;;
21326;SDS011;10822;51.532;6.770;2023-05-07T04:31:58;19.83;;;16.75;;
21326;SDS011;10822;51.532;6.770;2023-05-07T04:34:24;20.80;;;16.77;;
21326;SDS011;10822;51.532;6.770;2023-05-07T04:36:50;20.98;;;17.30;;
21326;SDS011;10822;51.532;6.770;2023-05-07T04:39:16;20.67;;;17.27;;
21326;SDS011;10822;51.532;6.770;2023-05-07T04:41:42;20.63;;;17.05;;
21326;SDS011;10822;51.532;6.770;2023-05-07T04:44:08;20.73;;;16.88;;
21326;SDS011;10822;51.532;6.770;2023-05-07T04:46:34;21.10;;;17.38;;
21326;SDS011;10822;51.532;6.770;2023-05-07T04:49:00;19.33;;;17.13;;
21326;SDS011;10822;51.532;6.770;2023-05-07T04:51:26;22.73;;;17.90;;
21326;SDS011;10822;51.532;6.770;2023-05-07T04:53:52;19.08;;;16.08;;
21326;SDS011;10822;51.532;6.770;2023-05-07T04:56:18;23.40;;;18.13;;
21326;SDS011;10822;51.532;6.770;2023-05-07T04:58:45;20.05;;;16.73;;
21326;SDS011;10822;51.532;6.770;2023-05-07T05:01:11;19.67;;;16.60;;
21326;SDS011;10822;51.532;6.770;2023-05-07T05:03:37;21.05;;;17.27;;
21326;SDS011;10822;51.532;6.770;2023-05-07T05:06:04;21.85;;;17.48;;
21326;SDS011;10822;51.532;6.770;2023-05-07T05:08:30;20.23;;;16.45;;
21326;SDS011;10822;51.532;6.770;2023-05-07T05:10:56;20.42;;;16.75;;
21326;SDS011;10822;51.532;6.770;2023-05-07T05:13:23;21.63;;;17.20;;
21326;SDS011;10822;51.532;6.770;2023-05-07T05:15:49;19.35;;;15.63;;
21326;SDS011;10822;51.532;6.770;2023-05-07T05:18:15;18.88;;;16.60;;
21326;SDS011;10822;51.532;6.770;2023-05-07T05:20:41;20.10;;;16.98;;
21326;SDS011;10822;51.532;6.770;2023-05-07T05:23:07;20.95;;;17.00;;
21326;SDS011;10822;51.532;6.770;2023-05-07T05:25:33;19.73;;;16.48;;
21326;SDS011;10822;51.532;6.770;2023-05-07T05:27:59;20.50;;;17.30;;
21326;SDS011;10822;51.532;6.770;2023-05-07T05:30:26;22.27;;;17.67;;
21326;SDS011;10822;51.532;6.770;2023-05-07T05:32:52;19.48;;;15.50;;
21326;SDS011;10822;51.532;6.770;2023-05-07T05:35:18;22.50;;;17.08;;
21326;SDS011;10822;51.532;6.770;2023-05-07T05:37:44;24.13;;;18.10;;
21326;SDS011;10822;51.532;6.770;2023-05-07T05:40:10;21.58;;;17.95;;
21326;SDS011;10822;51.532;6.770;2023-05-07T05:42:36;24.10;;;17.13;;
21326;SDS011;10822;51.532;6.770;2023-05-07T05:45:02;22.40;;;16.67;;
21326;SDS011;10822;51.532;6.770;2023-05-07T05:47:28;20.70;;;15.93;;
21326;SDS011;10822;51.532;6.770;2023-05-07T05:49:55;20.88;;;16.70;;
21326;SDS011;10822;51.532;6.770;2023-05-07T05:52:21;18.73;;;15.00;;
21326;SDS011;10822;51.532;6.770;2023-05-07T05:54:48;17.08;;;13.65;;
21326;SDS011;10822;51.532;6.770;2023-05-07T05:57:15;16.42;;;13.30;;
21326;SDS011;10822;51.532;6.770;2023-05-07T05:59:41;17.15;;;13.05;;
21326;SDS011;10822;51.532;6.770;2023-05-07T06:02:07;16.38;;;12.45;;
21326;SDS011;10822;51.532;6.770;2023-05-07T06:04:33;16.23;;;12.10;;
21326;SDS011;10822;51.532;6.770;2023-05-07T06:06:59;14.45;;;11.70;;
21326;SDS011;10822;51.532;6.770;2023-05-07T06:09:25;14.23;;;10.63;;
21326;SDS011;10822;51.532;6.770;2023-05-07T06:11:51;13.70;;;11.05;;
21326;SDS011;10822;51.532;6.770;2023-05-07T06:14:17;14.02;;;10.90;;
21326;SDS011;10822;51.532;6.770;2023-05-07T06:19:09;12.38;;;9.63;;
21326;SDS011;10822;51.532;6.770;2023-05-07T06:21:35;12.82;;;9.82;;
21326;SDS011;10822;51.532;6.770;2023-05-07T06:24:01;11.52;;;8.50;;
21326;SDS011;10822;51.532;6.770;2023-05-07T06:26:27;12.98;;;8.95;;
21326;SDS011;10822;51.532;6.770;2023-05-07T06:28:53;11.25;;;8.50;;
21326;SDS011;10822;51.532;6.770;2023-05-07T06:31:19;11.10;;;8.52;;
21326;SDS011;10822;51.532;6.770;2023-05-07T06:33:45;10.27;;;7.90;;
21326;SDS011;10822;51.532;6.770;2023-05-07T06:36:12;11.00;;;8.25;;
21326;SDS011;10822;51.532;6.770;2023-05-07T06:38:38;14.63;;;8.05;;
21326;SDS011;10822;51.532;6.770;2023-05-07T06:41:05;10.90;;;8.63;;
21326;SDS011;10822;51.532;6.770;2023-05-07T06:43:31;10.52;;;7.40;;
21326;SDS011;10822;51.532;6.770;2023-05-07T06:45:57;12.10;;;8.02;;
21326;SDS011;10822;51.532;6.770;2023-05-07T06:48:23;10.02;;;7.10;;
21326;SDS011;10822;51.532;6.770;2023-05-07T06:50:49;9.95;;;7.30;;
21326;SDS011;10822;51.532;6.770;2023-05-07T06:53:15;8.65;;;7.22;;
21326;SDS011;10822;51.532;6.770;2023-05-07T06:55:41;8.25;;;6.93;;
21326;SDS011;10822;51.532;6.770;2023-05-07T06:58:07;10.38;;;6.70;;
21326;SDS011;10822;51.532;6.770;2023-05-07T07:00:33;10.65;;;7.07;;
21326;SDS011;10822;51.532;6.770;2023-05-07T07:02:59;9.68;;;7.75;;
21326;SDS011;10822;51.532;6.770;2023-05-07T07:05:25;8.68;;;6.35;;
21326;SDS011;10822;51.532;6.770;2023-05-07T07:07:51;9.25;;;6.53;;
21326;SDS011;10822;51.532;6.770;2023-05-07T07:10:18;8.18;;;5.95;;
21326;SDS011;10822;51.532;6.770;2023-05-07T07:12:44;9.27;;;6.40;;
21326;SDS011;10822;51.532;6.770;2023-05-07T07:15:10;8.02;;;6.15;;
21326;SDS011;10822;51.532;6.770;2023-05-07T07:17:36;8.18;;;6.22;;
21326;SDS011;10822;51.532;6.770;2023-05-07T07:20:03;7.72;;;6.15;;
21326;SDS011;10822;51.532;6.770;2023-05-07T07:22:29;7.82;;;5.78;;
21326;SDS011;10822;51.532;6.770;2023-05-07T07:24:55;6.65;;;5.20;;
21326;SDS011;10822;51.532;6.770;2023-05-07T07:27:20;8.32;;;5.82;;
21326;SDS011;10822;51.532;6.770;2023-05-07T07:29:46;6.38;;;4.43;;
21326;SDS011;10822;51.532;6.770;2023-05-07T07:32:12;6.90;;;5.18;;
21326;SDS011;10822;51.532;6.770;2023-05-07T07:34:38;8.00;;;5.22;;
21326;SDS011;10822;51.532;6.770;2023-05-07T07:37:04;6.75;;;5.05;;
21326;SDS011;10822;51.532;6.770;2023-05-07T07:39:34;5.47;;;4.35;;
21326;SDS011;10822;51.532;6.770;2023-05-07T07:42:02;6.55;;;4.35;;
21326;SDS011;10822;51.532;6.770;2023-05-07T07:44:28;6.13;;;4.10;;
21326;SDS011;10822;51.532;6.770;2023-05-07T07:46:54;4.90;;;4.05;;
21326;SDS011;10822;51.532;6.770;2023-05-07T07:49:22;4.93;;;3.60;;
21326;SDS011;10822;51.532;6.770;2023-05-07T07:51:48;4.18;;;3.63;;
21326;SDS011;10822;51.532;6.770;2023-05-07T07:54:13;4.78;;;3.50;;
21326;SDS011;10822;51.532;6.770;2023-05-07T07:56:39;5.68;;;3.50;;
21326;SDS011;10822;51.532;6.770;2023-05-07T07:59:05;5.07;;;3.42;;
21326;SDS011;10822;51.532;6.770;2023-05-07T08:01:31;4.05;;;3.10;;
21326;SDS011;10822;51.532;6.770;2023-05-07T08:03:57;5.22;;;3.75;;
21326;SDS011;10822;51.532;6.770;2023-05-07T08:06:24;4.90;;;3.38;;
21326;SDS011;10822;51.532;6.770;2023-05-07T08:08:53;3.72;;;3.05;;
21326;SDS011;10822;51.532;6.770;2023-05-07T08:11:19;4.07;;;3.13;;
21326;SDS011;10822;51.532;6.770;2023-05-07T08:13:46;4.03;;;2.55;;
21326;SDS011;10822;51.532;6.770;2023-05-07T08:16:12;4.20;;;2.58;;
21326;SDS011;10822;51.532;6.770;2023-05-07T08:18:38;3.75;;;2.80;;
21326;SDS011;10822;51.532;6.770;2023-05-07T08:21:04;4.05;;;2.80;;
21326;SDS011;10822;51.532;6.770;2023-05-07T08:23:30;3.58;;;2.50;;
21326;SDS011;10822;51.532;6.770;2023-05-07T08:25:56;3.70;;;2.58;;
21326;SDS011;10822;51.532;6.770;2023-05-07T08:28:22;3.40;;;2.40;;
21326;SDS011;10822;51.532;6.770;2023-05-07T08:30:49;3.17;;;2.38;;
21326;SDS011;10822;51.532;6.770;2023-05-07T08:33:16;5.03;;;2.35;;
21326;SDS011;10822;51.532;6.770;2023-05-07T08:35:42;4.88;;;2.90;;
21326;SDS011;10822;51.532;6.770;2023-05-07T08:38:08;5.43;;;2.53;;
21326;SDS011;10822;51.532;6.770;2023-05-07T08:40:36;3.47;;;2.38;;
21326;SDS011;10822;51.532;6.770;2023-05-07T08:43:03;2.88;;;2.28;;
21326;SDS011;10822;51.532;6.770;2023-05-07T08:45:30;3.20;;;2.30;;
21326;SDS011;10822;51.532;6.770;2023-05-07T08:47:58;5.43;;;2.17;;
21326;SDS011;10822;51.532;6.770;2023-05-07T08:50:25;4.60;;;2.40;;
21326;SDS011;10822;51.532;6.770;2023-05-07T08:52:51;5.30;;;2.30;;
21326;SDS011;10822;51.532;6.770;2023-05-07T08:55:17;3.42;;;2.00;;
21326;SDS011;10822;51.532;6.770;2023-05-07T08:57:44;3.58;;;2.30;;
21326;SDS011;10822;51.532;6.770;2023-05-07T09:00:10;3.30;;;2.67;;
21326;SDS011;10822;51.532;6.770;2023-05-07T09:02:36;4.22;;;2.67;;
21326;SDS011;10822;51.532;6.770;2023-05-07T09:05:02;3.78;;;2.13;;
21326;SDS011;10822;51.532;6.770;2023-05-07T09:07:29;2.70;;;2.30;;
21326;SDS011;10822;51.532;6.770;2023-05-07T09:09:55;3.13;;;2.50;;
21326;SDS011;10822;51.532;6.770;2023-05-07T09:12:22;4.30;;;2.40;;
21326;SDS011;10822;51.532;6.770;2023-05-07T09:14:48;2.85;;;2.40;;
21326;SDS011;10822;51.532;6.770;2023-05-07T09:17:17;3.40;;;2.50;;
21326;SDS011;10822;51.532;6.770;2023-05-07T09:19:46;4.05;;;2.35;;
21326;SDS011;10822;51.532;6.770;2023-05-07T09:22:12;3.90;;;2.42;;
21326;SDS011;10822;51.532;6.770;2023-05-07T09:24:38;3.95;;;2.40;;
21326;SDS011;10822;51.532;6.770;2023-05-07T09:27:05;4.05;;;2.63;;
21326;SDS011;10822;51.532;6.770;2023-05-07T09:29:31;3.03;;;2.10;;
21326;SDS011;10822;51.532;6.770;2023-05-07T09:32:04;3.10;;;2.47;;
21326;SDS011;10822;51.532;6.770;2023-05-07T09:34:31;3.53;;;2.55;;
21326;SDS011;10822;51.532;6.770;2023-05-07T09:37:01;4.53;;;2.35;;
21326;SDS011;10822;51.532;6.770;2023-05-07T09:39:37;5.18;;;2.60;;
21326;SDS011;10822;51.532;6.770;2023-05-07T09:42:04;2.97;;;2.40;;
21326;SDS011;10822;51.532;6.770;2023-05-07T09:44:31;3.25;;;2.45;;
21326;SDS011;10822;51.532;6.770;2023-05-07T09:46:57;2.40;;;2.10;;
21326;SDS011;10822;51.532;6.770;2023-05-07T09:49:25;4.00;;;2.30;;
21326;SDS011;10822;51.532;6.770;2023-05-07T09:51:52;5.90;;;2.33;;
21326;SDS011;10822;51.532;6.770;2023-05-07T09:54:19;4.22;;;1.92;;
21326;SDS011;10822;51.532;6.770;2023-05-07T09:56:45;4.88;;;2.63;;
21326;SDS011;10822;51.532;6.770;2023-05-07T09:59:12;3.85;;;2.60;;
21326;SDS011;10822;51.532;6.770;2023-05-07T10:01:39;2.95;;;2.13;;
21326;SDS011;10822;51.532;6.770;2023-05-07T10:04:06;3.60;;;2.60;;
21326;SDS011;10822;51.532;6.770;2023-05-07T10:06:35;4.28;;;2.40;;
21326;SDS011;10822;51.532;6.770;2023-05-07T10:09:03;3.38;;;2.28;;
21326;SDS011;10822;51.532;6.770;2023-05-07T10:11:31;3.28;;;2.53;;
21326;SDS011;10822;51.532;6.770;2023-05-07T10:13:58;3.55;;;2.53;;
21326;SDS011;10822;51.532;6.770;2023-05-07T10:16:24;3.75;;;2.60;;
21326;SDS011;10822;51.532;6.770;2023-05-07T10:18:52;4.75;;;3.30;;
21326;SDS011;10822;51.532;6.770;2023-05-07T10:21:19;4.05;;;2.60;;
21326;SDS011;10822;51.532;6.770;2023-05-07T10:23:48;4.13;;;2.45;;
21326;SDS011;10822;51.532;6.770;2023-05-07T10:26:14;3.40;;;2.10;;
21326;SDS011;10822;51.532;6.770;2023-05-07T10:28:41;2.95;;;1.90;;
21326;SDS011;10822;51.532;6.770;2023-05-07T10:33:41;4.47;;;2.25;;
21326;SDS011;10822;51.532;6.770;2023-05-07T10:36:08;2.20;;;1.70;;
21326;SDS011;10822;51.532;6.770;2023-05-07T10:38:34;2.63;;;2.10;;
21326;SDS011;10822;51.532;6.770;2023-05-07T10:41:00;3.75;;;2.13;;
21326;SDS011;10822;51.532;6.770;2023-05-07T10:43:36;3.70;;;2.10;;
21326;SDS011;10822;51.532;6.770;2023-05-07T10:46:16;3.42;;;2.45;;
21326;SDS011;10822;51.532;6.770;2023-05-07T10:51:33;5.82;;;1.88;;
21326;SDS011;10822;51.532;6.770;2023-05-07T10:56:38;4.18;;;2.28;;
21326;SDS011;10822;51.532;6.770;2023-05-07T11:01:56;2.88;;;1.60;;
21326;SDS011;10822;51.532;6.770;2023-05-07T11:04:27;2.00;;;1.50;;
21326;SDS011;10822;51.532;6.770;2023-05-07T11:15:06;2.90;;;1.33;;
21326;SDS011;10822;51.532;6.770;2023-05-07T11:17:33;3.63;;;1.45;;
21326;SDS011;10822;51.532;6.770;2023-05-07T11:20:02;2.85;;;1.85;;
21326;SDS011;10822;51.532;6.770;2023-05-07T11:24:59;2.72;;;1.70;;
21326;SDS011;10822;51.532;6.770;2023-05-07T11:27:26;2.25;;;1.50;;
21326;SDS011;10822;51.532;6.770;2023-05-07T11:29:52;2.38;;;1.42;;
21326;SDS011;10822;51.532;6.770;2023-05-07T11:32:24;3.70;;;1.63;;
21326;SDS011;10822;51.532;6.770;2023-05-07T11:34:54;2.97;;;1.50;;
21326;SDS011;10822;51.532;6.770;2023-05-07T11:37:20;1.60;;;1.50;;
21326;SDS011;10822;51.532;6.770;2023-05-07T11:39:47;2.50;;;1.15;;
21326;SDS011;10822;51.532;6.770;2023-05-07T11:45:24;2.55;;;1.48;;
21326;SDS011;10822;51.532;6.770;2023-05-07T11:47:50;4.30;;;1.80;;
21326;SDS011;10822;51.532;6.770;2023-05-07T11:50:16;3.42;;;1.30;;
21326;SDS011;10822;51.532;6.770;2023-05-07T11:52:49;2.13;;;1.10;;
21326;SDS011;10822;51.532;6.770;2023-05-07T11:55:17;2.35;;;1.20;;
21326;SDS011;10822;51.532;6.770;2023-05-07T11:57:44;1.73;;;1.30;;
21326;SDS011;10822;51.532;6.770;2023-05-07T12:00:10;2.65;;;1.50;;
21326;SDS011;10822;51.532;6.770;2023-05-07T12:02:36;2.10;;;1.40;;
21326;SDS011;10822;51.532;6.770;2023-05-07T12:05:03;3.60;;;1.42;;
21326;SDS011;10822;51.532;6.770;2023-05-07T12:07:29;2.90;;;1.65;;
21326;SDS011;10822;51.532;6.770;2023-05-07T12:09:56;2.78;;;1.40;;
21326;SDS011;10822;51.532;6.770;2023-05-07T12:12:22;2.33;;;1.50;;
21326;SDS011;10822;51.532;6.770;2023-05-07T12:14:48;2.97;;;1.70;;
21326;SDS011;10822;51.532;6.770;2023-05-07T12:17:15;3.38;;;2.08;;
21326;SDS011;10822;51.532;6.770;2023-05-07T12:19:42;4.38;;;3.13;;
21326;SDS011;10822;51.532;6.770;2023-05-07T12:22:08;2.25;;;1.70;;
21326;SDS011;10822;51.532;6.770;2023-05-07T12:24:47;2.70;;;1.52;;
21326;SDS011;10822;51.532;6.770;2023-05-07T12:27:14;1.67;;;1.33;;
21326;SDS011;10822;51.532;6.770;2023-05-07T12:29:43;3.05;;;1.38;;
21326;SDS011;10822;51.532;6.770;2023-05-07T12:32:14;2.88;;;1.55;;
21326;SDS011;10822;51.532;6.770;2023-05-07T12:34:40;2.28;;;1.48;;
21326;SDS011;10822;51.532;6.770;2023-05-07T12:37:07;1.83;;;1.52;;
21326;SDS011;10822;51.532;6.770;2023-05-07T12:39:33;2.33;;;1.42;;
21326;SDS011;10822;51.532;6.770;2023-05-07T12:41:59;1.90;;;1.50;;
21326;SDS011;10822;51.532;6.770;2023-05-07T12:44:28;2.28;;;1.50;;
21326;SDS011;10822;51.532;6.770;2023-05-07T12:46:55;1.90;;;1.20;;
21326;SDS011;10822;51.532;6.770;2023-05-07T12:49:21;2.97;;;1.60;;
21326;SDS011;10822;51.532;6.770;2023-05-07T12:51:47;2.78;;;1.30;;
21326;SDS011;10822;51.532;6.770;2023-05-07T12:54:13;1.50;;;1.30;;
21326;SDS011;10822;51.532;6.770;2023-05-07T12:56:39;3.47;;;1.60;;
21326;SDS011;10822;51.532;6.770;2023-05-07T12:59:05;5.03;;;1.90;;
21326;SDS011;10822;51.532;6.770;2023-05-07T13:01:33;2.75;;;1.50;;
21326;SDS011;10822;51.532;6.770;2023-05-07T13:04:02;2.58;;;1.70;;
21326;SDS011;10822;51.532;6.770;2023-05-07T13:06:30;2.58;;;1.60;;
21326;SDS011;10822;51.532;6.770;2023-05-07T13:08:56;2.33;;;1.88;;
21326;SDS011;10822;51.532;6.770;2023-05-07T13:11:22;1.92;;;1.50;;
21326;SDS011;10822;51.532;6.770;2023-05-07T13:13:48;3.55;;;1.52;;
21326;SDS011;10822;51.532;6.770;2023-05-07T13:16:14;2.92;;;1.95;;
21326;SDS011;10822;51.532;6.770;2023-05-07T13:18:40;3.55;;;2.10;;
21326;SDS011;10822;51.532;6.770;2023-05-07T13:21:08;2.28;;;1.92;;
21326;SDS011;10822;51.532;6.770;2023-05-07T13:23:35;3.83;;;2.00;;
21326;SDS011;10822;51.532;6.770;2023-05-07T13:26:03;4.75;;;2.03;;
21326;SDS011;10822;51.532;6.770;2023-05-07T13:28:29;5.07;;;3.47;;
21326;SDS011;10822;51.532;6.770;2023-05-07T13:30:55;4.30;;;2.88;;
21326;SDS011;10822;51.532;6.770;2023-05-07T13:33:21;4.72;;;2.78;;
21326;SDS011;10822;51.532;6.770;2023-05-07T13:35:47;3.35;;;2.50;;
21326;SDS011;10822;51.532;6.770;2023-05-07T13:38:13;4.85;;;2.90;;
21326;SDS011;10822;51.532;6.770;2023-05-07T13:40:40;3.15;;;2.67;;
21326;SDS011;10822;51.532;6.770;2023-05-07T13:43:06;3.45;;;2.90;;
21326;SDS011;10822;51.532;6.770;2023-05-07T13:45:32;5.28;;;3.10;;
21326;SDS011;10822;51.532;6.770;2023-05-07T13:47:58;4.30;;;3.20;;
21326;SDS011;10822;51.532;6.770;2023-05-07T13:50:24;5.35;;;3.75;;
21326;SDS011;10822;51.532;6.770;2023-05-07T13:52:54;5.05;;;3.85;;
21326;SDS011;10822;51.532;6.770;2023-05-07T13:55:21;7.50;;;3.75;;
21326;SDS011;10822;51.532;6.770;2023-05-07T13:57:48;5.95;;;4.30;;
21326;SDS011;10822;51.532;6.770;2023-05-07T14:00:19;5.03;;;4.00;;
21326;SDS011;10822;51.532;6.770;2023-05-07T14:02:45;5.50;;;3.95;;
21326;SDS011;10822;51.532;6.770;2023-05-07T14:05:12;5.85;;;4.80;;
21326;SDS011;10822;51.532;6.770;2023-05-07T14:07:38;5.35;;;4.35;;
21326;SDS011;10822;51.532;6.770;2023-05-07T14:10:04;5.25;;;4.15;;
21326;SDS011;10822;51.532;6.770;2023-05-07T14:12:31;7.15;;;4.30;;
21326;SDS011;10822;51.532;6.770;2023-05-07T14:14:57;5.35;;;4.07;;
21326;SDS011;10822;51.532;6.770;2023-05-07T14:17:23;4.45;;;3.28;;
21326;SDS011;10822;51.532;6.770;2023-05-07T14:19:51;4.65;;;3.88;;
21326;SDS011;10822;51.532;6.770;2023-05-07T14:22:19;5.97;;;3.70;;
21326;SDS011;10822;51.532;6.770;2023-05-07T14:24:46;10.75;;;5.50;;
21326;SDS011;10822;51.532;6.770;2023-05-07T14:27:12;9.43;;;5.05;;
21326;SDS011;10822;51.532;6.770;2023-05-07T14:29:38;9.60;;;5.15;;
21326;SDS011;10822;51.532;6.770;2023-05-07T14:32:04;11.48;;;5.95;;
21326;SDS011;10822;51.532;6.770;2023-05-07T14:34:30;8.75;;;6.18;;
21326;SDS011;10822;51.532;6.770;2023-05-07T14:36:58;12.15;;;6.30;;
21326;SDS011;10822;51.532;6.770;2023-05-07T14:39:24;11.15;;;6.68;;
21326;SDS011;10822;51.532;6.770;2023-05-07T14:41:50;13.93;;;6.97;;
21326;SDS011;10822;51.532;6.770;2023-05-07T14:44:16;7.70;;;6.35;;
21326;SDS011;10822;51.532;6.770;2023-05-07T14:46:42;9.45;;;6.43;;
21326;SDS011;10822;51.532;6.770;2023-05-07T14:49:08;9.80;;;6.32;;
21326;SDS011;10822;51.532;6.770;2023-05-07T14:51:41;9.43;;;7.05;;
21326;SDS011;10822;51.532;6.770;2023-05-07T14:54:07;9.02;;;6.45;;
21326;SDS011;10822;51.532;6.770;2023-05-07T14:56:34;8.02;;;6.50;;
21326;SDS011;10822;51.532;6.770;2023-05-07T14:59:01;8.52;;;6.95;;